createdAt,value
2022-09-27T00:01:55.483Z,38.60
2022-09-27T00:04:00.754Z,37.80
2022-09-27T00:06:07.971Z,27.25
2022-09-27T00:08:11.684Z,29.55
2022-09-27T00:10:16.437Z,29.38
2022-09-27T00:12:20.194Z,27.20
2022-09-27T00:14:25.394Z,30.85
2022-09-27T00:16:31.617Z,30.67
2022-09-27T00:18:35.445Z,31.55
2022-09-27T00:20:39.323Z,27.52
2022-09-27T00:22:43.050Z,36.05
2022-09-27T00:24:46.740Z,29.05
2022-09-27T00:26:50.963Z,23.20
2022-09-27T00:28:55.130Z,23.27
2022-09-27T00:31:00.631Z,27.58
2022-09-27T00:33:04.703Z,25.10
2022-09-27T00:35:08.932Z,32.75
2022-09-27T00:37:13.636Z,29.52
2022-09-27T00:39:18.156Z,25.08
2022-09-27T00:41:24.674Z,32.45
2022-09-27T00:43:28.322Z,33.03
2022-09-27T00:45:32.050Z,29.45
2022-09-27T00:47:43.532Z,32.67
2022-09-27T00:49:51.051Z,34.22
2022-09-27T00:51:59.512Z,28.83
2022-09-27T00:54:03.902Z,30.10
2022-09-27T00:56:12.936Z,35.58
2022-09-27T00:58:20.414Z,25.05
2022-09-27T01:00:24.662Z,33.55
2022-09-27T01:02:29.009Z,36.05
2022-09-27T01:04:35.384Z,29.30
2022-09-27T01:06:39.939Z,34.60
2022-09-27T01:08:43.864Z,35.35
2022-09-27T01:11:00.044Z,29.67
2022-09-27T01:13:14.572Z,37.13
2022-09-27T01:15:27.325Z,42.72
2022-09-27T01:17:43.075Z,42.25
2022-09-27T01:20:16.612Z,42.70
2022-09-27T01:22:23.512Z,29.08
2022-09-27T01:25:04.354Z,38.55
2022-09-27T01:27:29.785Z,31.20
2022-09-27T01:29:42.982Z,38.28
2022-09-27T01:31:52.179Z,24.77
2022-09-27T01:34:05.108Z,33.85
2022-09-27T01:36:18.220Z,39.78
2022-09-27T01:38:26.958Z,27.77
2022-09-27T01:40:37.485Z,35.90
2022-09-27T01:43:19.662Z,33.25
2022-09-27T01:45:30.199Z,31.45
2022-09-27T01:47:48.461Z,35.67
2022-09-27T01:50:14.938Z,41.22
2022-09-27T01:52:23.860Z,33.22
2022-09-27T01:54:35.242Z,35.85
2022-09-27T01:56:59.167Z,30.70
2022-09-27T01:59:12.385Z,36.95
2022-09-27T02:01:24.156Z,33.92
2022-09-27T02:03:34.442Z,29.02
2022-09-27T02:06:06.662Z,38.92
2022-09-27T02:08:36.256Z,25.67
2022-09-27T02:10:48.590Z,33.78
2022-09-27T02:12:59.472Z,33.35
2022-09-27T02:15:08.349Z,33.65
2022-09-27T02:17:21.576Z,40.55
2022-09-27T02:19:39.671Z,47.88
2022-09-27T02:21:55.070Z,52.20
2022-09-27T02:24:01.315Z,34.10
2022-09-27T02:26:09.993Z,36.10
2022-09-27T02:28:24.833Z,34.08
2022-09-27T02:30:28.655Z,32.15
2022-09-27T02:32:38.779Z,36.35
2022-09-27T02:34:46.275Z,34.08
2022-09-27T02:36:49.757Z,36.78
2022-09-27T02:38:53.208Z,32.80
2022-09-27T02:40:58.181Z,37.80
2022-09-27T02:43:03.843Z,40.78
2022-09-27T02:45:09.058Z,37.42
2022-09-27T02:47:35.536Z,33.90
2022-09-27T02:50:01.407Z,34.13
2022-09-27T02:52:33.378Z,29.42
2022-09-27T02:54:46.227Z,42.15
2022-09-27T02:57:31.807Z,34.92
2022-09-27T03:00:10.203Z,35.38
2022-09-27T03:02:35.586Z,32.67
2022-09-27T03:05:04.914Z,50.08
2022-09-27T03:07:08.732Z,34.60
2022-09-27T03:09:18.898Z,29.67
2022-09-27T03:11:22.532Z,31.85
2022-09-27T03:13:25.927Z,39.58
2022-09-27T03:15:29.939Z,38.83
2022-09-27T03:17:38.289Z,39.83
2022-09-27T03:20:18.959Z,32.53
2022-09-27T03:22:27.138Z,39.20
2022-09-27T03:24:30.570Z,31.73
2022-09-27T03:26:34.018Z,30.48
2022-09-27T03:28:37.445Z,34.85
2022-09-27T03:30:42.261Z,30.75
2022-09-27T03:32:47.212Z,36.75
2022-09-27T03:35:30.532Z,33.83
2022-09-27T03:37:34.696Z,37.17
2022-09-27T03:39:38.046Z,31.50
2022-09-27T03:41:42.360Z,33.78
2022-09-27T03:43:45.841Z,40.97
2022-09-27T03:45:50.386Z,41.03
2022-09-27T03:47:54.940Z,36.47
2022-09-27T03:49:58.688Z,41.88
2022-09-27T03:52:03.762Z,32.85
2022-09-27T03:54:07.338Z,36.00
2022-09-27T03:56:10.964Z,33.95
2022-09-27T03:58:14.381Z,40.75
2022-09-27T04:00:18.441Z,36.67
2022-09-27T04:02:21.908Z,43.03
2022-09-27T04:04:44.490Z,31.90
2022-09-27T04:06:48.227Z,36.65
2022-09-27T04:08:53.350Z,46.45
2022-09-27T04:10:59.458Z,30.33
2022-09-27T04:13:03.108Z,35.88
2022-09-27T04:15:12.387Z,42.70
2022-09-27T04:17:27.672Z,37.83
2022-09-27T04:20:00.054Z,28.77
2022-09-27T04:22:03.682Z,36.20
2022-09-27T04:24:09.151Z,34.45
2022-09-27T04:26:13.824Z,29.50
2022-09-27T04:28:30.294Z,39.72
2022-09-27T04:30:34.149Z,39.13
2022-09-27T04:32:49.752Z,38.35
2022-09-27T04:35:37.335Z,33.60
2022-09-27T04:37:42.055Z,40.85
2022-09-27T04:39:46.866Z,34.45
2022-09-27T04:41:51.691Z,30.38
2022-09-27T04:43:58.894Z,40.00
2022-09-27T04:46:02.890Z,40.72
2022-09-27T04:48:06.373Z,44.50
2022-09-27T04:50:11.151Z,32.22
2022-09-27T04:52:15.593Z,23.13
2022-09-27T04:54:19.331Z,32.65
2022-09-27T04:56:44.081Z,34.15
2022-09-27T04:58:47.409Z,34.67
2022-09-27T05:00:52.689Z,42.88
2022-09-27T05:03:15.193Z,35.38
2022-09-27T05:05:29.902Z,31.33
2022-09-27T05:07:35.631Z,30.15
2022-09-27T05:09:44.126Z,36.75
2022-09-27T05:11:49.520Z,25.77
2022-09-27T05:13:53.281Z,39.53
2022-09-27T05:15:57.468Z,35.60
2022-09-27T05:18:18.267Z,35.88
2022-09-27T05:23:00.753Z,41.60
2022-09-27T05:25:04.459Z,36.92
2022-09-27T05:27:11.585Z,34.20
2022-09-27T05:29:15.252Z,38.03
2022-09-27T05:31:25.566Z,32.58
2022-09-27T05:33:29.885Z,43.15
2022-09-27T05:35:56.044Z,37.10
2022-09-27T05:38:06.195Z,33.20
2022-09-27T05:40:36.579Z,29.48
2022-09-27T05:42:40.690Z,35.60
2022-09-27T05:44:48.876Z,33.58
2022-09-27T05:46:53.388Z,40.47
2022-09-27T05:48:57.118Z,30.88
2022-09-27T05:51:00.950Z,34.55
2022-09-27T05:53:04.878Z,50.00
2022-09-27T05:55:09.703Z,33.03
2022-09-27T05:57:13.534Z,25.70
2022-09-27T05:59:22.003Z,29.13
2022-09-27T06:01:44.752Z,35.78
2022-09-27T06:03:55.269Z,43.67
2022-09-27T06:06:15.797Z,32.75
2022-09-27T06:08:25.490Z,38.05
2022-09-27T06:10:30.416Z,35.35
2022-09-27T06:12:35.497Z,36.72
2022-09-27T06:14:44.063Z,39.75
2022-09-27T06:16:54.772Z,36.78
2022-09-27T06:19:02.120Z,36.45
2022-09-27T06:21:07.957Z,30.33
2022-09-27T06:23:13.755Z,30.77
2022-09-27T06:25:17.808Z,36.80
2022-09-27T06:27:40.341Z,32.70
2022-09-27T06:29:51.254Z,33.60
2022-09-27T06:32:15.495Z,31.23
2022-09-27T06:34:26.208Z,34.47
2022-09-27T06:36:30.182Z,39.35
2022-09-27T06:38:34.247Z,35.75
2022-09-27T06:42:51.415Z,30.83
2022-09-27T06:45:04.947Z,27.50
2022-09-27T06:47:17.958Z,40.30
2022-09-27T06:49:31.874Z,35.13
2022-09-27T06:51:36.856Z,33.70
2022-09-27T06:53:40.922Z,31.10
2022-09-27T06:55:45.561Z,42.83
2022-09-27T06:58:06.840Z,37.13
2022-09-27T07:00:27.121Z,38.03
2022-09-27T07:03:01.386Z,36.30
2022-09-27T07:05:29.619Z,36.63
2022-09-27T07:07:49.410Z,38.25
2022-09-27T07:09:53.333Z,32.65
2022-09-27T07:11:57.798Z,32.78
2022-09-27T07:14:02.376Z,30.83
2022-09-27T07:16:08.914Z,28.25
2022-09-27T07:18:13.858Z,41.25
2022-09-27T07:20:18.634Z,34.65
2022-09-27T07:22:22.642Z,43.10
2022-09-27T07:24:32.543Z,41.25
2022-09-27T07:26:37.247Z,39.03
2022-09-27T07:28:45.349Z,36.45
2022-09-27T07:30:57.409Z,46.08
2022-09-27T07:33:05.863Z,33.33
2022-09-27T07:35:11.242Z,44.33
2022-09-27T07:37:15.109Z,39.75
2022-09-27T07:39:18.943Z,32.92
2022-09-27T07:41:22.875Z,51.50
2022-09-27T07:43:26.739Z,43.88
2022-09-27T07:45:31.536Z,45.75
2022-09-27T07:47:46.523Z,34.42
2022-09-27T07:50:00.216Z,53.45
2022-09-27T07:52:16.244Z,40.80
2022-09-27T07:54:45.970Z,46.33
2022-09-27T07:57:04.281Z,40.50
2022-09-27T07:59:09.188Z,38.92
2022-09-27T08:01:13.272Z,36.28
2022-09-27T08:03:18.733Z,44.35
2022-09-27T08:05:25.342Z,45.08
2022-09-27T08:07:30.384Z,50.53
2022-09-27T08:09:34.449Z,44.70
2022-09-27T08:11:38.675Z,30.33
2022-09-27T08:13:44.125Z,39.83
2022-09-27T08:15:48.923Z,37.78
2022-09-27T08:17:53.574Z,40.70
2022-09-27T08:20:24.896Z,47.25
2022-09-27T08:22:42.540Z,42.97
2022-09-27T08:24:59.870Z,35.83
2022-09-27T08:27:21.539Z,53.40
2022-09-27T08:29:29.069Z,39.60
2022-09-27T08:31:33.335Z,37.10
2022-09-27T08:33:41.444Z,40.58
2022-09-27T08:35:48.832Z,34.20
2022-09-27T08:37:59.388Z,37.40
2022-09-27T08:40:05.307Z,37.92
2022-09-27T08:42:19.589Z,37.10
2022-09-27T08:44:31.069Z,43.92
2022-09-27T08:47:04.186Z,32.92
2022-09-27T08:49:15.835Z,28.15
2022-09-27T08:51:23.694Z,36.10
2022-09-27T08:53:34.340Z,40.15
2022-09-27T08:55:42.281Z,32.97
2022-09-27T08:57:58.707Z,38.75
2022-09-27T09:00:07.356Z,47.63
2022-09-27T09:02:20.539Z,36.78
2022-09-27T09:04:33.401Z,33.42
2022-09-27T09:06:44.795Z,34.35
2022-09-27T09:09:01.878Z,40.88
2022-09-27T09:11:35.087Z,32.83
2022-09-27T09:13:55.961Z,30.58
2022-09-27T09:16:12.022Z,26.33
2022-09-27T09:18:31.354Z,45.05
2022-09-27T09:21:05.043Z,39.47
2022-09-27T09:23:28.402Z,31.75
2022-09-27T09:25:38.447Z,38.70
2022-09-27T09:27:50.058Z,32.60
2022-09-27T09:30:21.004Z,32.97
2022-09-27T09:32:37.227Z,31.55
2022-09-27T09:34:44.899Z,32.38
2022-09-27T09:36:52.705Z,30.95
2022-09-27T09:39:04.036Z,50.65
2022-09-27T09:41:13.770Z,48.90
2022-09-27T09:43:23.110Z,32.00
2022-09-27T09:45:31.916Z,36.08
2022-09-27T09:47:44.048Z,34.78
2022-09-27T09:49:53.566Z,32.53
2022-09-27T09:52:05.221Z,37.58
2022-09-27T09:54:21.165Z,36.10
2022-09-27T09:56:28.567Z,38.42
2022-09-27T09:58:41.889Z,32.50
2022-09-27T10:00:52.498Z,34.35
2022-09-27T10:02:59.743Z,32.35
2022-09-27T10:05:07.892Z,35.00
2022-09-27T10:07:13.522Z,35.65
2022-09-27T10:09:21.276Z,24.20
2022-09-27T10:11:48.308Z,28.10
2022-09-27T10:13:56.044Z,31.08
2022-09-27T10:16:05.646Z,42.80
2022-09-27T10:18:17.626Z,30.95
2022-09-27T10:20:31.637Z,32.22
2022-09-27T10:22:39.938Z,37.60
2022-09-27T10:24:58.735Z,36.35
2022-09-27T10:27:42.226Z,36.63
2022-09-27T10:29:47.435Z,29.75
2022-09-27T10:31:56.229Z,25.40
2022-09-27T10:34:08.540Z,25.75
2022-09-27T10:36:26.476Z,28.08
2022-09-27T10:38:33.126Z,25.40
2022-09-27T10:40:44.067Z,32.30
2022-09-27T10:42:48.785Z,25.83
2022-09-27T10:44:58.650Z,36.45
2022-09-27T10:47:23.239Z,33.30
2022-09-27T10:49:45.749Z,31.25
2022-09-27T10:52:06.714Z,26.33
2022-09-27T10:54:22.355Z,41.88
2022-09-27T10:56:31.367Z,27.48
2022-09-27T10:58:38.405Z,28.27
2022-09-27T11:00:56.867Z,34.83
2022-09-27T11:03:03.053Z,26.23
2022-09-27T11:05:15.413Z,28.30
2022-09-27T11:07:23.887Z,29.15
2022-09-27T11:09:50.940Z,22.63
2022-09-27T11:12:11.715Z,31.17
2022-09-27T11:14:25.868Z,31.70
2022-09-27T11:16:44.126Z,27.38
2022-09-27T11:19:01.758Z,19.38
2022-09-27T11:21:18.632Z,33.50
2022-09-27T11:23:41.421Z,31.65
2022-09-27T11:26:01.040Z,32.00
2022-09-27T11:28:16.478Z,30.23
2022-09-27T11:30:22.912Z,26.60
2022-09-27T11:33:17.865Z,24.60
2022-09-27T11:35:35.050Z,28.38
2022-09-27T11:37:50.954Z,22.13
2022-09-27T11:40:13.735Z,25.83
2022-09-27T11:42:41.315Z,24.05
2022-09-27T11:47:42.773Z,35.05
2022-09-27T11:50:25.600Z,27.02
2022-09-27T11:52:40.939Z,20.88
2022-09-27T11:55:07.717Z,28.63
2022-09-27T11:57:19.294Z,21.80
2022-09-27T11:59:52.561Z,19.70
2022-09-27T12:02:08.083Z,32.33
2022-09-27T12:04:38.822Z,27.90
2022-09-27T12:06:54.148Z,20.67
2022-09-27T12:09:07.521Z,25.23
2022-09-27T12:11:21.467Z,22.52
2022-09-27T12:13:34.755Z,32.63
2022-09-27T12:15:44.538Z,29.48
2022-09-27T12:17:55.806Z,27.70
2022-09-27T12:20:05.198Z,21.23
2022-09-27T12:22:40.548Z,22.02
2022-09-27T12:24:48.825Z,24.58
2022-09-27T12:27:23.584Z,18.50
2022-09-27T12:29:32.372Z,29.83
2022-09-27T12:31:42.550Z,20.85
2022-09-27T12:33:59.272Z,18.08
2022-09-27T12:36:09.682Z,20.90
2022-09-27T12:38:17.343Z,26.02
2022-09-27T12:40:23.431Z,26.83
2022-09-27T12:42:34.027Z,18.13
2022-09-27T12:44:47.464Z,17.98
2022-09-27T12:49:12.792Z,21.90
2022-09-27T12:51:19.143Z,28.65
2022-09-27T12:53:32.006Z,21.00
2022-09-27T12:55:59.019Z,23.38
2022-09-27T12:58:39.559Z,17.10
2022-09-27T13:00:56.328Z,18.80
2022-09-27T13:03:28.434Z,21.33
2022-09-27T13:06:11.893Z,15.80
2022-09-27T13:08:50.815Z,20.05
2022-09-27T13:11:12.526Z,19.38
2022-09-27T13:13:20.562Z,14.80
2022-09-27T13:15:29.330Z,17.25
2022-09-27T13:17:51.913Z,19.52
2022-09-27T13:20:48.477Z,14.68
2022-09-27T13:24:01.046Z,18.50
2022-09-27T13:26:26.218Z,19.48
2022-09-27T13:28:58.527Z,18.80
2022-09-27T13:31:14.071Z,19.25
2022-09-27T13:33:36.405Z,26.95
2022-09-27T13:35:41.409Z,12.80
2022-09-27T13:37:57.245Z,15.43
2022-09-27T13:40:24.599Z,18.45
2022-09-27T13:42:56.191Z,21.52
2022-09-27T13:45:21.762Z,21.13
2022-09-27T13:47:33.598Z,18.30
2022-09-27T13:49:42.089Z,16.83
2022-09-27T13:51:51.190Z,15.98
2022-09-27T13:54:06.691Z,20.83
2022-09-27T13:56:56.438Z,19.77
2022-09-27T13:59:03.244Z,19.98
2022-09-27T14:01:43.915Z,15.57
2022-09-27T14:03:49.735Z,15.32
2022-09-27T14:05:57.145Z,18.95
2022-09-27T14:08:04.145Z,18.95
2022-09-27T14:10:15.743Z,14.40
2022-09-27T14:12:22.719Z,19.90
2022-09-27T14:14:31.616Z,18.90
2022-09-27T14:16:37.976Z,21.90
2022-09-27T14:18:51.192Z,21.73
2022-09-27T14:21:18.201Z,20.15
2022-09-27T14:23:34.197Z,17.45
2022-09-27T14:25:47.770Z,22.15
2022-09-27T14:27:52.266Z,11.85
2022-09-27T14:30:15.628Z,16.83
2022-09-27T14:32:23.556Z,16.67
2022-09-27T14:34:33.663Z,20.33
2022-09-27T14:36:56.712Z,13.98
2022-09-27T14:39:03.617Z,15.40
2022-09-27T14:41:16.080Z,17.75
2022-09-27T14:43:22.550Z,19.83
2022-09-27T14:45:36.762Z,27.83
2022-09-27T14:47:46.691Z,19.45
2022-09-27T14:49:52.510Z,14.65
2022-09-27T14:51:59.211Z,19.65
2022-09-27T14:54:05.711Z,19.48
2022-09-27T14:56:18.467Z,16.73
2022-09-27T14:58:46.013Z,31.35
2022-09-27T15:00:49.892Z,20.00
2022-09-27T15:02:56.676Z,19.15
2022-09-27T15:05:02.977Z,17.30
2022-09-27T15:07:07.822Z,26.05
2022-09-27T15:09:15.139Z,16.38
2022-09-27T15:11:20.683Z,20.23
2022-09-27T15:13:25.105Z,16.13
2022-09-27T15:15:32.921Z,17.02
2022-09-27T15:17:44.695Z,17.20
2022-09-27T15:20:02.534Z,18.83
2022-09-27T15:22:33.363Z,14.75
2022-09-27T15:24:39.040Z,16.30
2022-09-27T15:26:47.113Z,18.75
2022-09-27T15:28:52.623Z,17.50
2022-09-27T15:30:58.420Z,15.85
2022-09-27T15:33:03.788Z,13.25
2022-09-27T15:35:10.279Z,17.85
2022-09-27T15:37:27.966Z,16.50
2022-09-27T15:39:35.119Z,16.45
2022-09-27T15:42:13.545Z,19.83
2022-09-27T15:44:39.474Z,19.08
2022-09-27T15:46:44.340Z,18.27
2022-09-27T15:48:48.570Z,13.38
2022-09-27T15:50:53.247Z,18.58
2022-09-27T15:52:57.693Z,36.70
2022-09-27T15:55:01.502Z,14.30
2022-09-27T15:57:07.258Z,20.52
2022-09-27T15:59:21.029Z,18.80
2022-09-27T16:01:24.915Z,16.52
2022-09-27T16:03:29.292Z,18.52
2022-09-27T16:05:33.401Z,14.73
2022-09-27T16:07:37.258Z,10.90
2022-09-27T16:09:41.494Z,14.77
2022-09-27T16:11:45.328Z,15.93
2022-09-27T16:13:50.539Z,15.35
2022-09-27T16:15:55.956Z,15.05
2022-09-27T16:18:00.378Z,17.27
2022-09-27T16:20:04.317Z,15.80
2022-09-27T16:22:07.819Z,14.18
2022-09-27T16:24:12.456Z,13.38
2022-09-27T16:26:16.115Z,25.77
2022-09-27T16:28:20.131Z,13.20
2022-09-27T16:30:23.933Z,9.48
2022-09-27T16:32:29.401Z,13.70
2022-09-27T16:34:33.408Z,10.02
2022-09-27T16:36:37.785Z,21.90
2022-09-27T16:38:41.771Z,11.45
2022-09-27T16:40:45.676Z,15.88
2022-09-27T16:42:50.574Z,18.23
2022-09-27T16:44:55.378Z,8.57
2022-09-27T16:46:59.387Z,15.73
2022-09-27T16:49:04.635Z,13.30
2022-09-27T16:51:29.846Z,13.65
2022-09-27T16:53:34.009Z,22.25
2022-09-27T16:55:38.241Z,11.68
2022-09-27T16:57:42.354Z,22.25
2022-09-27T16:59:46.323Z,19.80
2022-09-27T17:01:50.213Z,14.85
2022-09-27T17:03:57.449Z,16.00
2022-09-27T17:06:05.431Z,25.33
2022-09-27T17:08:09.559Z,17.92
2022-09-27T17:10:13.681Z,20.83
2022-09-27T17:12:18.325Z,20.67
2022-09-27T17:14:22.831Z,14.13
2022-09-27T17:16:27.306Z,16.48
2022-09-27T17:18:31.086Z,14.18
2022-09-27T17:20:35.348Z,15.85
2022-09-27T17:22:41.117Z,16.90
2022-09-27T17:24:45.326Z,24.55
2022-09-27T17:26:49.520Z,18.55
2022-09-27T17:28:55.207Z,20.20
2022-09-27T17:31:05.326Z,22.77
2022-09-27T17:33:09.534Z,13.50
2022-09-27T17:35:13.480Z,12.43
2022-09-27T17:37:17.538Z,16.80
2022-09-27T17:39:23.623Z,14.05
2022-09-27T17:41:29.166Z,13.70
2022-09-27T17:43:34.210Z,11.60
2022-09-27T17:45:38.120Z,12.70
2022-09-27T17:48:00.203Z,15.63
2022-09-27T17:50:21.139Z,17.50
2022-09-27T17:52:27.008Z,11.57
2022-09-27T17:54:32.552Z,13.70
2022-09-27T17:56:39.498Z,17.25
2022-09-27T17:58:48.191Z,20.55
2022-09-27T18:00:55.703Z,14.70
2022-09-27T18:03:01.120Z,16.02
2022-09-27T18:05:05.689Z,12.30
2022-09-27T18:07:10.360Z,14.02
2022-09-27T18:09:16.310Z,13.30
2022-09-27T18:11:25.640Z,15.38
2022-09-27T18:13:31.607Z,19.83
2022-09-27T18:15:37.886Z,13.68
2022-09-27T18:17:43.745Z,17.25
2022-09-27T18:19:48.624Z,18.45
2022-09-27T18:21:52.640Z,17.35
2022-09-27T18:23:58.440Z,15.65
2022-09-27T18:26:09.706Z,18.25
2022-09-27T18:28:15.392Z,17.45
2022-09-27T18:30:20.002Z,16.45
2022-09-27T18:32:23.983Z,15.57
2022-09-27T18:34:27.792Z,27.17
2022-09-27T18:36:33.580Z,16.55
2022-09-27T18:38:37.339Z,19.23
2022-09-27T18:40:55.568Z,11.88
2022-09-27T18:42:59.786Z,14.50
2022-09-27T18:45:06.521Z,23.63
2022-09-27T18:47:10.507Z,22.75
2022-09-27T18:49:16.228Z,17.10
2022-09-27T18:51:22.479Z,17.08
2022-09-27T18:53:27.355Z,14.60
2022-09-27T18:55:31.924Z,16.65
2022-09-27T18:57:37.926Z,18.17
2022-09-27T18:59:42.221Z,10.73
2022-09-27T19:01:47.897Z,16.02
2022-09-27T19:03:51.990Z,19.13
2022-09-27T19:05:56.358Z,16.35
2022-09-27T19:08:00.013Z,18.02
2022-09-27T19:10:05.484Z,22.58
2022-09-27T19:12:09.119Z,17.65
2022-09-27T19:14:18.411Z,14.73
2022-09-27T19:16:23.173Z,27.88
2022-09-27T19:18:29.848Z,19.20
2022-09-27T19:20:34.727Z,24.88
2022-09-27T19:22:38.767Z,20.45
2022-09-27T19:24:42.604Z,27.08
2022-09-27T19:26:46.251Z,18.70
2022-09-27T19:28:50.428Z,24.85
2022-09-27T19:30:55.190Z,18.98
2022-09-27T19:32:59.445Z,30.00
2022-09-27T19:35:05.703Z,15.27
2022-09-27T19:37:09.537Z,18.33
2022-09-27T19:39:13.603Z,19.73
2022-09-27T19:41:18.714Z,25.25
2022-09-27T19:43:22.722Z,18.20
2022-09-27T19:45:26.620Z,19.33
2022-09-27T19:47:30.477Z,13.90
2022-09-27T19:49:34.750Z,18.80
2022-09-27T19:51:40.329Z,14.90
2022-09-27T19:53:45.031Z,18.65
2022-09-27T19:55:49.146Z,15.73
2022-09-27T19:57:53.273Z,18.15
2022-09-27T19:59:57.299Z,15.75
2022-09-27T20:02:01.243Z,18.67
2022-09-27T20:04:05.229Z,14.25
2022-09-27T20:06:11.549Z,15.85
2022-09-27T20:08:16.952Z,18.77
2022-09-27T20:10:21.126Z,20.75
2022-09-27T20:12:25.107Z,16.60
2022-09-27T20:14:29.142Z,18.67
2022-09-27T20:16:36.065Z,19.02
2022-09-27T20:18:43.698Z,14.32
2022-09-27T20:20:47.497Z,17.38
2022-09-27T20:22:52.031Z,15.48
2022-09-27T20:24:57.779Z,11.10
2022-09-27T20:27:01.728Z,21.52
2022-09-27T20:29:06.920Z,11.68
2022-09-27T20:31:13.134Z,18.60
2022-09-27T20:33:34.401Z,16.48
2022-09-27T20:35:38.436Z,15.18
2022-09-27T20:37:42.818Z,15.90
2022-09-27T20:39:46.515Z,16.45
2022-09-27T20:41:52.584Z,13.40
2022-09-27T20:43:58.749Z,13.70
2022-09-27T20:46:03.362Z,13.85
2022-09-27T20:48:07.611Z,12.32
2022-09-27T20:50:12.856Z,14.32
2022-09-27T20:52:17.139Z,14.13
2022-09-27T20:54:21.042Z,19.95
2022-09-27T20:56:27.030Z,14.25
2022-09-27T20:58:33.428Z,17.25
2022-09-27T21:00:37.415Z,14.35
2022-09-27T21:02:41.386Z,15.63
2022-09-27T21:04:45.272Z,22.42
2022-09-27T21:06:49.488Z,19.52
2022-09-27T21:08:53.356Z,17.38
2022-09-27T21:10:57.109Z,13.98
2022-09-27T21:13:01.467Z,14.88
2022-09-27T21:15:09.548Z,19.08
2022-09-27T21:17:14.798Z,10.65
2022-09-27T21:19:19.559Z,20.65
2022-09-27T21:21:25.308Z,15.25
2022-09-27T21:23:31.038Z,15.20
2022-09-27T21:25:35.532Z,19.60
2022-09-27T21:27:39.357Z,19.23
2022-09-27T21:29:45.628Z,19.52
2022-09-27T21:31:51.330Z,16.52
2022-09-27T21:33:59.310Z,17.90
2022-09-27T21:36:03.680Z,9.65
2022-09-27T21:38:07.626Z,20.00
2022-09-27T21:40:12.348Z,14.07
2022-09-27T21:42:16.501Z,14.52
2022-09-27T21:44:20.785Z,11.70
2022-09-27T21:46:26.848Z,18.95
2022-09-27T21:48:32.764Z,16.33
2022-09-27T21:50:36.666Z,13.55
2022-09-27T21:52:40.580Z,19.95
2022-09-27T21:54:44.384Z,9.30
2022-09-27T21:56:48.651Z,16.02
2022-09-27T21:58:52.976Z,17.33
2022-09-27T22:00:57.133Z,16.48
2022-09-27T22:03:00.765Z,22.80
2022-09-27T22:05:06.411Z,15.65
2022-09-27T22:07:10.374Z,14.52
2022-09-27T22:09:17.095Z,16.83
2022-09-27T22:11:23.123Z,13.23
2022-09-27T22:13:27.078Z,12.98
2022-09-27T22:15:30.717Z,16.17
2022-09-27T22:17:34.655Z,19.77
2022-09-27T22:19:38.485Z,18.42
2022-09-27T22:21:43.668Z,10.77
2022-09-27T22:23:47.469Z,12.52
2022-09-27T22:25:51.170Z,21.80
2022-09-27T22:27:54.865Z,14.40
2022-09-27T22:29:58.803Z,11.57
2022-09-27T22:32:04.019Z,10.50
2022-09-27T22:34:11.122Z,24.63
2022-09-27T22:36:15.049Z,25.02
2022-09-27T22:38:20.514Z,14.07
2022-09-27T22:40:24.469Z,14.52
2022-09-27T22:42:28.448Z,13.82
2022-09-27T22:44:33.770Z,15.73
2022-09-27T22:46:37.869Z,14.45
2022-09-27T22:48:42.611Z,22.38
2022-09-27T22:50:46.613Z,17.58
2022-09-27T22:52:50.311Z,14.70
2022-09-27T22:54:55.859Z,11.90
2022-09-27T22:56:59.653Z,9.00
2022-09-27T22:59:03.397Z,13.80
2022-09-27T23:01:10.898Z,18.92
2022-09-27T23:03:14.167Z,15.65
2022-09-27T23:05:17.677Z,9.52
2022-09-27T23:07:21.014Z,11.57
2022-09-27T23:09:24.827Z,12.73
2022-09-27T23:11:31.441Z,15.20
2022-09-27T23:13:35.597Z,21.77
2022-09-27T23:15:38.938Z,17.73
2022-09-27T23:17:42.517Z,16.00
2022-09-27T23:19:45.901Z,18.08
2022-09-27T23:21:50.196Z,15.70
2022-09-27T23:23:55.369Z,23.92
2022-09-27T23:26:00.249Z,18.52
2022-09-27T23:28:04.919Z,8.75
2022-09-27T23:30:09.094Z,18.02
2022-09-27T23:32:12.824Z,17.40
2022-09-27T23:34:16.320Z,10.40
2022-09-27T23:36:22.699Z,18.10
2022-09-27T23:38:25.975Z,14.20
2022-09-27T23:40:29.389Z,17.25
2022-09-27T23:42:32.944Z,19.80
2022-09-27T23:44:37.996Z,14.88
2022-09-27T23:46:41.536Z,20.55
2022-09-27T23:48:45.084Z,16.15
2022-09-27T23:50:49.398Z,18.27
2022-09-27T23:52:53.032Z,24.75
2022-09-27T23:54:56.328Z,20.08
2022-09-27T23:56:59.889Z,24.70
2022-09-27T23:59:03.229Z,21.50
